M I D A S
Marine Information and Data Acquisition System
Tripno 1807 of the Zeeleeuw from 2009-11-16 07:53:23 to 2009-11-16 16:18:57
Back to CruiseResearch ActivitiesStationsMapUnderway DataData graphs

EquipmentUnitsComment
TimeDGPSUTC
LatitudeDGPSDM.mWGS84
LongitudeDGPSDM.mWGS84
HeadingGyrodeg 
SOGDGPSknotsSpeed over ground
COGDGPSdegCourse over ground
DepthEcho soundermeters200 kHz
Missing or incorrect values are displayed as -999
Navigation data collected by the RV Zeeleeuw from 2009-11-16 07:36:09 to 2009-11-16 16:26:54
                                                                                    Next 1000 lines
Time Latitude Longitude Heading SOG COG Depth
2009-11-16 07:36:20 51°13.662 2°55.954 108.6 1.3 291 7.2
2009-11-16 07:36:25 51°13.663 2°55.951 108.5 1.6 294 7.2
2009-11-16 07:36:29 51°13.664 2°55.947 108.5 1.9 293 7.3
2009-11-16 07:36:35 51°13.665 2°55.943 108.5 2.1 295 -999
2009-11-16 07:36:41 51°13.667 2°55.937 108.5 2.3 293 -999
2009-11-16 07:36:47 51°13.668 2°55.931 108.4 2.5 293 -999
2009-11-16 07:36:52 51°13.67 2°55.925 107.6 2.7 292 -999
2009-11-16 07:36:58 51°13.671 2°55.918 106.9 2.8 292 -999
2009-11-16 07:37:04 51°13.673 2°55.911 106.2 2.9 290 -999
2009-11-16 07:37:08 51°13.674 2°55.907 105.3 2.9 289 -999
2009-11-16 07:37:13 51°13.675 2°55.9 104.6 3 288 -999
2009-11-16 07:37:19 51°13.677 2°55.893 103.9 3 287 -999
2009-11-16 07:37:24 51°13.678 2°55.886 103.2 3.1 286 -999
2009-11-16 07:37:28 51°13.679 2°55.881 102.6 3.1 285 -999
2009-11-16 07:37:33 51°13.68 2°55.874 102.1 3.1 285 -999
2009-11-16 07:37:39 51°13.681 2°55.866 101.6 3.2 285 -999
2009-11-16 07:37:44 51°13.682 2°55.859 101.1 3.3 284 -999
2009-11-16 07:37:48 51°13.683 2°55.853 100.5 3.3 283 -999
2009-11-16 07:37:53 51°13.684 2°55.846 99.4 3.3 283 -999
2009-11-16 07:37:59 51°13.685 2°55.838 97.8 3.2 281 -999
2009-11-16 07:38:04 51°13.686 2°55.831 96 3.2 281 -999
2009-11-16 07:38:09 51°13.687 2°55.824 94.2 3.2 279 -999
2009-11-16 07:38:13 51°13.687 2°55.818 92.2 3.2 278 -999
2009-11-16 07:38:19 51°13.688 2°55.81 90.1 3.2 276 -999
2009-11-16 07:38:24 51°13.688 2°55.803 87.9 3.2 274 -999
2009-11-16 07:38:28 51°13.688 2°55.797 85 3.2 272 -999
2009-11-16 07:38:33 51°13.688 2°55.79 82.9 3.1 269 -999
2009-11-16 07:38:39 51°13.688 2°55.782 80.4 3 267 -999
2009-11-16 07:38:44 51°13.688 2°55.776 77.7 2.9 265 -999
2009-11-16 07:38:48 51°13.688 2°55.771 75.2 2.7 264 -999
2009-11-16 07:38:53 51°13.687 2°55.765 73 2.6 262 -999
2009-11-16 07:38:59 51°13.687 2°55.759 71.3 2.4 261 -999
2009-11-16 07:39:04 51°13.686 2°55.754 69 2.2 260 -999
2009-11-16 07:39:08 51°13.686 2°55.751 67.1 1.8 262 11.8
2009-11-16 07:39:13 51°13.686 2°55.747 65.2 1.5 263 12.1
2009-11-16 07:39:18 51°13.686 2°55.745 62.9 1.1 267 12.2
2009-11-16 07:39:23 51°13.686 2°55.743 60 0.7 279 12.3
2009-11-16 07:39:28 51°13.686 2°55.742 56.6 0.5 299 12.4
2009-11-16 07:39:32 51°13.687 2°55.742 50.9 0.5 323 12.3
2009-11-16 07:39:37 51°13.687 2°55.741 46 0.5 346 12.5
2009-11-16 07:39:42 51°13.688 2°55.741 41.2 0.7 355 12.6
2009-11-16 07:39:47 51°13.689 2°55.741 37.3 0.7 1 12.7
2009-11-16 07:39:52 51°13.691 2°55.741 32.5 0.9 -999 12.9
2009-11-16 07:39:57 51°13.692 2°55.741 28 0.9 4 12.9
2009-11-16 07:40:01 51°13.693 2°55.741 22.7 1 1 12.8
2009-11-16 07:40:06 51°13.694 2°55.742 19.4 1.1 3 12.7
2009-11-16 07:40:11 51°13.696 2°55.741 15.2 1.3 -999 12.6
2009-11-16 07:40:16 51°13.698 2°55.741 11.1 1.5 357 12.7
2009-11-16 07:40:21 51°13.7 2°55.741 6.6 1.6 355 12.9
2009-11-16 07:40:26 51°13.703 2°55.74 1.6 1.9 352 12.6
2009-11-16 07:40:31 51°13.706 2°55.739 356.8 2.1 350 12.4
2009-11-16 07:40:36 51°13.709 2°55.738 352.3 2.4 346 12.5
2009-11-16 07:40:40 51°13.712 2°55.737 348.2 2.7 344 12.5
2009-11-16 07:40:45 51°13.716 2°55.735 343.5 3 341 12.1
2009-11-16 07:40:50 51°13.72 2°55.732 339.8 3.3 338 12
2009-11-16 07:40:55 51°13.724 2°55.729 336.3 3.6 335 11.7
2009-11-16 07:41:00 51°13.729 2°55.725 334.2 4.1 333 11.5
2009-11-16 07:41:05 51°13.734 2°55.72 332.3 4.4 332 11.5
2009-11-16 07:41:10 51°13.74 2°55.715 330.8 4.8 330 11.4
2009-11-16 07:41:15 51°13.746 2°55.709 329.6 5.1 329 11.3
2009-11-16 07:41:20 51°13.753 2°55.703 328.8 5.4 327 11.2
2009-11-16 07:41:25 51°13.759 2°55.696 328.5 5.6 328 11.3
2009-11-16 07:41:30 51°13.766 2°55.689 328.9 5.9 328 11.2
2009-11-16 07:41:35 51°13.774 2°55.682 329.5 6.1 329 11
2009-11-16 07:41:40 51°13.781 2°55.675 330.3 6.3 330 11.2
2009-11-16 07:41:45 51°13.789 2°55.668 331.6 6.5 331 11
2009-11-16 07:41:49 51°13.796 2°55.663 333.2 6.7 333 10.9
2009-11-16 07:41:55 51°13.806 2°55.655 334 6.9 333 10.8
2009-11-16 07:42:00 51°13.814 2°55.648 334 7 333 10.8
2009-11-16 07:42:05 51°13.823 2°55.641 334.1 7.1 334 10.6
2009-11-16 07:42:09 51°13.83 2°55.636 334.7 7.3 335 10.9
2009-11-16 07:42:15 51°13.842 2°55.628 335.3 7.4 335 10.6
2009-11-16 07:42:20 51°13.851 2°55.621 335.8 7.5 336 10.5
2009-11-16 07:42:25 51°13.861 2°55.614 336.4 7.6 337 10.6
2009-11-16 07:42:30 51°13.871 2°55.607 336.6 7.7 336 10.8
2009-11-16 07:42:35 51°13.881 2°55.6 336.7 7.9 337 10.8
2009-11-16 07:42:40 51°13.891 2°55.593 337 8 337 10.8
2009-11-16 07:42:45 51°13.901 2°55.587 337.3 8.1 338 10.7
2009-11-16 07:42:50 51°13.911 2°55.579 336.9 8.2 336 10.4
2009-11-16 07:42:55 51°13.922 2°55.572 336.7 8.2 337 10.9
2009-11-16 07:43:00 51°13.933 2°55.565 336.9 8.3 337 10.6
2009-11-16 07:43:05 51°13.943 2°55.558 337.3 8.4 337 10.6
2009-11-16 07:43:09 51°13.952 2°55.552 336.8 8.4 336 10.5
2009-11-16 07:43:15 51°13.965 2°55.543 336.6 8.4 336 10.5
2009-11-16 07:43:20 51°13.976 2°55.535 336.4 8.5 336 10.5
2009-11-16 07:43:25 51°13.986 2°55.528 336.4 8.6 336 10.4
2009-11-16 07:43:30 51°13.997 2°55.52 336.4 8.6 336 10.4
2009-11-16 07:43:35 51°14.008 2°55.512 336.5 8.7 336 10.3
2009-11-16 07:43:40 51°14.019 2°55.504 336.6 8.7 336 10.2
2009-11-16 07:43:45 51°14.03 2°55.497 336.8 8.7 336 10.2
2009-11-16 07:43:49 51°14.039 2°55.49 337.1 8.7 337 10.3
2009-11-16 07:43:55 51°14.052 2°55.481 337.3 8.8 336 10.3
2009-11-16 07:44:00 51°14.064 2°55.473 337.1 8.9 336 10.3
2009-11-16 07:44:05 51°14.075 2°55.465 336.7 8.9 336 10.3
2009-11-16 07:44:10 51°14.086 2°55.457 336.2 8.9 335 10.4
2009-11-16 07:44:15 51°14.097 2°55.449 336.2 9 335 10.4
2009-11-16 07:44:20 51°14.109 2°55.44 336.1 9 335 10.4
2009-11-16 07:44:25 51°14.12 2°55.431 335.5 9 334 10.3
2009-11-16 07:44:29 51°14.129 2°55.424 334.6 9 333 10.4
2009-11-16 07:44:35 51°14.142 2°55.413 334 9 332 10.3
2009-11-16 07:44:40 51°14.153 2°55.404 333.3 9.1 332 10.3
2009-11-16 07:44:45 51°14.164 2°55.394 331.8 9.1 329 10.3
2009-11-16 07:44:49 51°14.173 2°55.385 330.1 9.1 329 10.3
2009-11-16 07:44:55 51°14.186 2°55.373 329.3 9.2 327 10.3
2009-11-16 07:45:00 51°14.196 2°55.361 327.5 9.2 325 10.3
2009-11-16 07:45:05 51°14.207 2°55.349 326.3 9.3 325 10.4
2009-11-16 07:45:10 51°14.217 2°55.337 325.6 9.3 324 10.3
2009-11-16 07:45:15 51°14.227 2°55.324 324 9.3 321 10.3
2009-11-16 07:45:20 51°14.237 2°55.311 321.8 9.3 319 10.3
2009-11-16 07:45:25 51°14.247 2°55.297 319.4 9.3 317 10.2
2009-11-16 07:45:30 51°14.256 2°55.283 316.5 9.2 313 10.3
2009-11-16 07:45:35 51°14.264 2°55.267 313.1 9.2 311 10.2
2009-11-16 07:45:40 51°14.273 2°55.252 311.1 9.3 310 10.2
2009-11-16 07:45:45 51°14.281 2°55.236 310.2 9.4 310 10.2
2009-11-16 07:45:49 51°14.287 2°55.223 309.9 9.5 310 10.3
2009-11-16 07:45:55 51°14.298 2°55.203 309.3 9.7 309 10.3
2009-11-16 07:46:00 51°14.306 2°55.186 307.8 9.7 306 10.3
2009-11-16 07:46:05 51°14.313 2°55.169 306.4 9.8 305 10.4
2009-11-16 07:46:10 51°14.321 2°55.151 305.8 9.8 304 10.4
2009-11-16 07:46:15 51°14.328 2°55.132 303.9 9.8 300 10.5
2009-11-16 07:46:20 51°14.334 2°55.113 300.8 9.9 297 10.6
2009-11-16 07:46:25 51°14.34 2°55.093 297.6 9.9 295 10.4
2009-11-16 07:46:29 51°14.344 2°55.076 294.2 10 291 10.3
2009-11-16 07:46:35 51°14.349 2°55.051 290.4 10.1 288 10.1
2009-11-16 07:46:40 51°14.353 2°55.03 287.7 10.2 287 9
2009-11-16 07:46:45 51°14.358 2°55.008 286.6 10.2 287 8.5
2009-11-16 07:46:50 51°14.362 2°54.987 287.1 10.2 289 8.3
2009-11-16 07:46:55 51°14.367 2°54.965 288 10.3 288 8.2
2009-11-16 07:47:00 51°14.371 2°54.943 288.2 10.4 288 8.3
2009-11-16 07:47:05 51°14.375 2°54.921 286.7 10.5 284 8.5
2009-11-16 07:47:09 51°14.378 2°54.903 285.6 10.7 286 8.6
2009-11-16 07:47:15 51°14.382 2°54.875 285.2 10.8 283 8.8
2009-11-16 07:47:20 51°14.386 2°54.852 284.6 10.9 284 9
2009-11-16 07:47:25 51°14.389 2°54.828 284.7 11 283 9.2
2009-11-16 07:47:29 51°14.392 2°54.809 285.2 11.1 284 9.3
2009-11-16 07:47:35 51°14.396 2°54.78 285.3 11.2 283 9.5
2009-11-16 07:47:40 51°14.4 2°54.756 285.3 11.3 283 9.6
2009-11-16 07:47:45 51°14.403 2°54.731 284.9 11.4 282 9.7
2009-11-16 07:47:50 51°14.407 2°54.707 284.8 11.4 283 9.7
2009-11-16 07:47:55 51°14.41 2°54.682 284.9 11.3 282 9.7
2009-11-16 07:48:00 51°14.413 2°54.657 283.8 11.4 278 9.7
2009-11-16 07:48:05 51°14.414 2°54.632 280.1 11.5 275 9.7
2009-11-16 07:48:10 51°14.415 2°54.607 278.3 11.4 276 9.7
2009-11-16 07:48:15 51°14.415 2°54.582 275.3 11.5 269 9.6
2009-11-16 07:48:20 51°14.415 2°54.556 270.8 11.5 267 9.6
2009-11-16 07:48:25 51°14.413 2°54.531 268.5 11.6 265 9.6
2009-11-16 07:48:30 51°14.411 2°54.505 265.7 11.6 261 9.5
2009-11-16 07:48:35 51°14.408 2°54.48 263.6 11.5 260 9.5
2009-11-16 07:48:40 51°14.404 2°54.456 259.8 11.6 254 9.5
2009-11-16 07:48:45 51°14.4 2°54.431 255.6 11.6 253 9.4
2009-11-16 07:48:50 51°14.394 2°54.407 253.1 11.6 251 9.3
2009-11-16 07:48:55 51°14.388 2°54.383 250 11.7 248 9.2
2009-11-16 07:49:00 51°14.382 2°54.359 248.2 11.7 247 9.1
2009-11-16 07:49:05 51°14.375 2°54.335 246.2 11.7 245 9.1
2009-11-16 07:49:10 51°14.368 2°54.312 244.9 11.8 245 9.2
2009-11-16 07:49:15 51°14.361 2°54.288 243.6 11.8 243 9.1
2009-11-16 07:49:20 51°14.354 2°54.265 242.5 11.8 243 9
2009-11-16 07:49:25 51°14.346 2°54.242 241.9 11.9 242 9.1
2009-11-16 07:49:30 51°14.338 2°54.219 240.9 11.9 241 9.1
2009-11-16 07:49:35 51°14.33 2°54.196 240.3 11.9 241 9
2009-11-16 07:49:40 51°14.322 2°54.174 239.7 11.9 240 9
2009-11-16 07:49:45 51°14.313 2°54.151 239.6 11.9 241 9
2009-11-16 07:49:49 51°14.307 2°54.132 239.5 11.9 240 8.8
2009-11-16 07:49:55 51°14.297 2°54.105 239.2 11.9 241 9
2009-11-16 07:50:00 51°14.289 2°54.081 239.5 11.9 241 8.9
2009-11-16 07:50:05 51°14.281 2°54.058 240 11.9 241 8.9
2009-11-16 07:50:10 51°14.273 2°54.035 240.3 12 241 8.9
2009-11-16 07:50:15 51°14.265 2°54.012 240.3 12 242 8.9
2009-11-16 07:50:20 51°14.257 2°53.989 240.3 12 241 8.9
2009-11-16 07:50:25 51°14.25 2°53.965 240.7 12 242 8.9
2009-11-16 07:50:30 51°14.241 2°53.942 240.9 12 241 8.9
2009-11-16 07:50:35 51°14.234 2°53.919 240.8 12 242 8.9
2009-11-16 07:50:40 51°14.226 2°53.895 240.8 12 242 9
2009-11-16 07:50:45 51°14.218 2°53.872 240.6 12 242 8.9
2009-11-16 07:50:50 51°14.21 2°53.849 240.6 12 242 8.9
2009-11-16 07:50:55 51°14.202 2°53.826 240.4 12 241 9
2009-11-16 07:51:00 51°14.194 2°53.803 240.3 12 241 9.1
2009-11-16 07:51:05 51°14.186 2°53.779 239.7 12 241 9
2009-11-16 07:51:10 51°14.178 2°53.756 239.9 12 241 9
2009-11-16 07:51:15 51°14.17 2°53.733 240.8 12 242 9.1
2009-11-16 07:51:20 51°14.162 2°53.709 241.2 12 243 9.1
2009-11-16 07:51:25 51°14.155 2°53.685 241.9 12 243 9.1
2009-11-16 07:51:30 51°14.148 2°53.662 242.5 12 244 9
2009-11-16 07:51:35 51°14.14 2°53.638 242.4 12 242 9.1
2009-11-16 07:51:40 51°14.132 2°53.615 241.6 12 242 9
2009-11-16 07:51:45 51°14.124 2°53.592 240.9 12 242 9.1
2009-11-16 07:51:50 51°14.116 2°53.568 240.9 12 242 9.1
2009-11-16 07:51:55 51°14.109 2°53.545 241.4 12 243 9.2
2009-11-16 07:52:00 51°14.101 2°53.521 241.8 12 243 9.2
2009-11-16 07:52:05 51°14.094 2°53.497 241.9 12 243 9.2
2009-11-16 07:52:10 51°14.086 2°53.473 242.3 12 243 9.2
2009-11-16 07:52:15 51°14.079 2°53.45 242.5 12 244 9.2
2009-11-16 07:52:20 51°14.071 2°53.426 242.7 12 244 9.2
2009-11-16 07:52:25 51°14.064 2°53.402 243.2 12 244 9.3
2009-11-16 07:52:30 51°14.057 2°53.378 243.4 12 245 9.3
2009-11-16 07:52:35 51°14.049 2°53.355 243.8 12 244 9.4
2009-11-16 07:52:40 51°14.042 2°53.331 243.5 12 244 9.4
2009-11-16 07:52:45 51°14.035 2°53.307 243.2 12 244 9.5
2009-11-16 07:52:50 51°14.028 2°53.283 243.2 12 244 9.5
2009-11-16 07:52:55 51°14.02 2°53.259 242.9 12 244 9.5
2009-11-16 07:53:00 51°14.012 2°53.235 242.3 12 243 9.5
2009-11-16 07:53:05 51°14.005 2°53.211 242.5 12 244 9.6
2009-11-16 07:53:10 51°13.998 2°53.187 243.2 12 244 9.6
2009-11-16 07:53:15 51°13.991 2°53.163 243.3 12 244 9.6
2009-11-16 07:53:20 51°13.983 2°53.139 243.5 12 244 9.6
2009-11-16 07:53:25 51°13.977 2°53.115 243.7 12 245 9.6
2009-11-16 07:53:29 51°13.971 2°53.096 244 12 245 9.7
2009-11-16 07:53:35 51°13.962 2°53.067 244 12 244 9.8
2009-11-16 07:53:40 51°13.955 2°53.044 243.5 12 244 9.7
2009-11-16 07:53:45 51°13.947 2°53.02 243.4 12.1 245 9.8
2009-11-16 07:53:50 51°13.94 2°52.996 244 12 245 9.8
2009-11-16 07:53:55 51°13.933 2°52.971 244.1 12 245 9.9
2009-11-16 07:54:00 51°13.926 2°52.947 244 12.1 244 9.9
2009-11-16 07:54:05 51°13.919 2°52.923 243.6 12 244 9.9
2009-11-16 07:54:09 51°13.913 2°52.904 244 12 245 9.9
2009-11-16 07:54:15 51°13.905 2°52.875 244.6 12 244 10
2009-11-16 07:54:20 51°13.898 2°52.851 244 12 244 10
2009-11-16 07:54:25 51°13.89 2°52.828 243 12 243 10
2009-11-16 07:54:30 51°13.883 2°52.804 243.1 12 245 9.9
2009-11-16 07:54:35 51°13.876 2°52.78 243.7 12 245 10
2009-11-16 07:54:40 51°13.869 2°52.756 243.8 12 245 10
2009-11-16 07:54:45 51°13.861 2°52.732 244.2 12 245 10
2009-11-16 07:54:49 51°13.856 2°52.712 244.6 12 245 10
2009-11-16 07:54:55 51°13.847 2°52.683 244.7 12 244 10.1
2009-11-16 07:55:00 51°13.84 2°52.659 244.3 12 244 10.1
2009-11-16 07:55:05 51°13.832 2°52.636 242.9 12 242 10.1
2009-11-16 07:55:10 51°13.824 2°52.613 241.9 12 243 10.1
2009-11-16 07:55:15 51°13.816 2°52.589 241.2 12 241 10.2
2009-11-16 07:55:20 51°13.808 2°52.566 240.3 12 241 10.1
2009-11-16 07:55:25 51°13.8 2°52.543 239.7 12 241 10.1
2009-11-16 07:55:29 51°13.794 2°52.524 239.6 12 240 10
2009-11-16 07:55:35 51°13.783 2°52.497 239.2 12 240 10
2009-11-16 07:55:40 51°13.775 2°52.474 239.1 12.1 240 10.2
2009-11-16 07:55:45 51°13.767 2°52.451 239.1 12 240 10.3
2009-11-16 07:55:50 51°13.758 2°52.428 238.9 12 240 10.2
2009-11-16 07:55:55 51°13.75 2°52.405 238.7 12 240 10.3
2009-11-16 07:56:00 51°13.742 2°52.381 238.9 12.1 241 10.3
2009-11-16 07:56:05 51°13.733 2°52.358 239.2 12.1 240 10.3
2009-11-16 07:56:09 51°13.727 2°52.34 238.9 12.1 239 10.3
2009-11-16 07:56:15 51°13.716 2°52.312 238.2 12.1 240 10.3
2009-11-16 07:56:20 51°13.708 2°52.289 238.2 12.1 240 10.3
2009-11-16 07:56:25 51°13.7 2°52.266 238.7 12.2 240 10.4
2009-11-16 07:56:30 51°13.691 2°52.242 239.1 12.2 240 10.3
2009-11-16 07:56:35 51°13.683 2°52.219 239 12.3 240 10.3
2009-11-16 07:56:40 51°13.674 2°52.195 238.9 12.3 240 10.3
2009-11-16 07:56:45 51°13.665 2°52.172 238.8 12.3 240 10.3
2009-11-16 07:56:50 51°13.657 2°52.148 238.9 12.3 240 10.3
2009-11-16 07:56:55 51°13.649 2°52.124 239.1 12.4 240 10.4
2009-11-16 07:57:00 51°13.64 2°52.101 239.1 12.4 240 10.4
2009-11-16 07:57:05 51°13.631 2°52.077 239 12.4 240 10.4
2009-11-16 07:57:09 51°13.625 2°52.058 239 12.4 240 10.4
2009-11-16 07:57:15 51°13.614 2°52.03 239 12.4 240 10.3
2009-11-16 07:57:20 51°13.605 2°52.006 239 12.4 240 10.4
2009-11-16 07:57:25 51°13.597 2°51.982 239 12.4 240 10.5
2009-11-16 07:57:30 51°13.588 2°51.958 239 12.4 240 10.4
2009-11-16 07:57:35 51°13.58 2°51.935 239 12.4 240 10.4
2009-11-16 07:57:40 51°13.571 2°51.911 238.9 12.4 240 10.4
2009-11-16 07:57:45 51°13.563 2°51.887 238.9 12.4 240 10.4
2009-11-16 07:57:50 51°13.554 2°51.863 239.1 12.4 241 10.5
2009-11-16 07:57:55 51°13.546 2°51.839 239.3 12.4 240 10.4
2009-11-16 07:58:00 51°13.537 2°51.815 239.3 12.4 241 10.4
2009-11-16 07:58:05 51°13.529 2°51.791 239.1 12.4 241 10.4
2009-11-16 07:58:09 51°13.522 2°51.772 239.2 12.4 241 10.5
2009-11-16 07:58:15 51°13.512 2°51.743 239.5 12.4 241 10.5
2009-11-16 07:58:20 51°13.504 2°51.719 239.6 12.4 241 10.5
2009-11-16 07:58:25 51°13.495 2°51.695 239.7 12.4 240 10.5
2009-11-16 07:58:30 51°13.487 2°51.672 239.1 12.4 241 10.6
2009-11-16 07:58:35 51°13.478 2°51.648 238.9 12.4 239 10.6
2009-11-16 07:58:40 51°13.469 2°51.624 238.6 12.4 240 10.6
2009-11-16 07:58:45 51°13.461 2°51.6 238.6 12.4 240 10.6
2009-11-16 07:58:49 51°13.454 2°51.581 238.8 12.4 240 10.7
2009-11-16 07:58:55 51°13.444 2°51.552 238.9 12.4 240 10.6
2009-11-16 07:59:00 51°13.435 2°51.529 238.9 12.4 240 10.6
2009-11-16 07:59:05 51°13.427 2°51.505 238.6 12.4 240 10.7
2009-11-16 07:59:10 51°13.418 2°51.481 238.3 12.4 240 10.7
2009-11-16 07:59:15 51°13.409 2°51.458 238.4 12.4 240 10.6
2009-11-16 07:59:20 51°13.401 2°51.434 238.8 12.4 240 10.6
2009-11-16 07:59:25 51°13.392 2°51.41 239.1 12.4 241 10.6
2009-11-16 07:59:29 51°13.386 2°51.391 239 12.4 240 10.7
2009-11-16 07:59:35 51°13.375 2°51.362 239 12.4 241 10.7
2009-11-16 07:59:40 51°13.367 2°51.338 239.4 12.4 241 10.6
2009-11-16 07:59:45 51°13.358 2°51.315 239.3 12.4 240 10.7
2009-11-16 07:59:50 51°13.35 2°51.291 239.1 12.4 240 10.6
2009-11-16 07:59:55 51°13.341 2°51.267 239 12.4 240 10.7
2009-11-16 08:00:00 51°13.333 2°51.243 238.9 12.4 240 10.7
2009-11-16 08:00:05 51°13.324 2°51.22 238.8 12.4 240 10.8
2009-11-16 08:00:10 51°13.316 2°51.196 238.8 12.4 240 10.8
2009-11-16 08:00:15 51°13.307 2°51.172 239.1 12.4 241 10.8
2009-11-16 08:00:20 51°13.299 2°51.148 239 12.4 240 10.8
2009-11-16 08:00:25 51°13.29 2°51.124 239 12.4 241 10.8
2009-11-16 08:00:30 51°13.282 2°51.1 239.1 12.4 241 10.8
2009-11-16 08:00:35 51°13.273 2°51.077 239.1 12.4 241 10.8
2009-11-16 08:00:40 51°13.265 2°51.052 239.6 12.4 242 10.8
2009-11-16 08:00:45 51°13.257 2°51.028 240.5 12.4 242 10.9
2009-11-16 08:00:50 51°13.249 2°51.004 240.5 12.4 242 10.8
2009-11-16 08:00:55 51°13.241 2°50.98 240.5 12.4 241 10.8
2009-11-16 08:01:00 51°13.233 2°50.956 240.4 12.4 243 10.9
2009-11-16 08:01:05 51°13.225 2°50.931 241.1 12.4 243 10.8
2009-11-16 08:01:10 51°13.217 2°50.907 241.1 12.4 242 10.8
2009-11-16 08:01:15 51°13.209 2°50.883 240.8 12.4 243 10.9
2009-11-16 08:01:20 51°13.201 2°50.859 240.8 12.4 243 10.9
2009-11-16 08:01:25 51°13.193 2°50.834 241.1 12.4 243 10.9
2009-11-16 08:01:29 51°13.187 2°50.815 241.2 12.4 243 10.9
2009-11-16 08:01:35 51°13.178 2°50.786 241.2 12.4 242 11
2009-11-16 08:01:40 51°13.17 2°50.761 241.2 12.4 243 10.9
2009-11-16 08:01:45 51°13.162 2°50.737 241.5 12.4 242 11
2009-11-16 08:01:50 51°13.154 2°50.713 241.2 12.4 243 11
2009-11-16 08:01:55 51°13.146 2°50.689 240.9 12.4 242 11
2009-11-16 08:02:00 51°13.138 2°50.665 240.9 12.4 243 11
2009-11-16 08:02:05 51°13.13 2°50.64 241.2 12.4 243 11
2009-11-16 08:02:09 51°13.124 2°50.621 241.4 12.3 243 11
2009-11-16 08:02:15 51°13.114 2°50.592 241.5 12.4 243 11.1
2009-11-16 08:02:20 51°13.106 2°50.568 241.2 12.4 242 11
2009-11-16 08:02:25 51°13.098 2°50.544 241.2 12.4 243 11
2009-11-16 08:02:30 51°13.091 2°50.52 241.2 12.4 243 11
2009-11-16 08:02:35 51°13.083 2°50.495 241.5 12.4 243 11
2009-11-16 08:02:40 51°13.075 2°50.471 241.8 12.3 243 11.1
2009-11-16 08:02:45 51°13.067 2°50.447 241.8 12.3 243 11.1
2009-11-16 08:02:50 51°13.059 2°50.422 241.3 12.4 242 11.1
2009-11-16 08:02:55 51°13.051 2°50.398 241.1 12.4 242 11.1
2009-11-16 08:03:00 51°13.044 2°50.374 241.1 12.3 243 11.1
2009-11-16 08:03:05 51°13.036 2°50.35 241.4 12.4 243 11.1
2009-11-16 08:03:10 51°13.028 2°50.325 241.5 12.3 243 11.1
2009-11-16 08:03:15 51°13.02 2°50.301 241.6 12.3 243 11.1
2009-11-16 08:03:20 51°13.013 2°50.277 241.6 12.3 243 11.2
2009-11-16 08:03:25 51°13.005 2°50.253 241.5 12.3 243 11.3
2009-11-16 08:03:30 51°12.997 2°50.229 241.2 12.4 242 11.3
2009-11-16 08:03:35 51°12.989 2°50.205 241.2 12.3 243 11.2
2009-11-16 08:03:40 51°12.981 2°50.181 241.2 12.4 242 11.3
2009-11-16 08:03:45 51°12.973 2°50.157 241.1 12.4 243 11.2
2009-11-16 08:03:50 51°12.965 2°50.133 241.1 12.3 242 11.2
2009-11-16 08:03:55 51°12.957 2°50.108 241.1 12.3 243 11.3
2009-11-16 08:04:00 51°12.949 2°50.084 241.2 12.3 243 11.3
2009-11-16 08:04:05 51°12.942 2°50.06 241.2 12.3 243 11.3
2009-11-16 08:04:10 51°12.934 2°50.036 241.3 12.4 243 11.4
2009-11-16 08:04:15 51°12.926 2°50.012 241.2 12.3 243 11.3
2009-11-16 08:04:20 51°12.918 2°49.988 241.2 12.3 243 11.3
2009-11-16 08:04:25 51°12.91 2°49.964 241.2 12.3 243 11.4
2009-11-16 08:04:30 51°12.902 2°49.939 241.2 12.3 243 11.3
2009-11-16 08:04:35 51°12.894 2°49.915 240.9 12.3 242 11.3
2009-11-16 08:04:40 51°12.887 2°49.891 240.8 12.3 243 11.4
2009-11-16 08:04:45 51°12.879 2°49.867 240.9 12.3 243 11.4
2009-11-16 08:04:50 51°12.871 2°49.843 241.2 12.3 243 11.4
2009-11-16 08:04:55 51°12.863 2°49.819 241.6 12.3 243 11.4
2009-11-16 08:05:00 51°12.855 2°49.795 241.6 12.3 242 11.5
2009-11-16 08:05:05 51°12.847 2°49.771 241 12.3 242 11.4
2009-11-16 08:05:09 51°12.841 2°49.752 240.7 12.3 242 11.5
2009-11-16 08:05:15 51°12.831 2°49.723 241.1 12.2 243 11.5
2009-11-16 08:05:20 51°12.823 2°49.699 241.1 12.3 242 11.5
2009-11-16 08:05:25 51°12.816 2°49.675 241 12.3 243 11.5
2009-11-16 08:05:30 51°12.808 2°49.651 240.9 12.3 242 11.5
2009-11-16 08:05:35 51°12.8 2°49.627 240.9 12.3 243 11.5
2009-11-16 08:05:40 51°12.792 2°49.603 241 12.3 243 11.5
2009-11-16 08:05:45 51°12.784 2°49.579 241.1 12.3 243 11.6
2009-11-16 08:05:49 51°12.778 2°49.56 241.4 12.3 243 11.5
2009-11-16 08:05:55 51°12.769 2°49.531 241.5 12.3 243 11.6
2009-11-16 08:06:00 51°12.761 2°49.506 241.7 12.2 243 11.7
2009-11-16 08:06:05 51°12.753 2°49.482 241.7 12.2 243 11.5
2009-11-16 08:06:10 51°12.746 2°49.458 241.5 12.3 243 11.5
2009-11-16 08:06:15 51°12.738 2°49.434 241.2 12.3 243 11.7
2009-11-16 08:06:20 51°12.73 2°49.41 241.3 12.3 243 11.7
2009-11-16 08:06:25 51°12.722 2°49.386 241.4 12.2 243 11.6
2009-11-16 08:06:29 51°12.716 2°49.367 241.4 12.3 243 11.7
2009-11-16 08:06:35 51°12.707 2°49.338 241.4 12.2 244 11.7
2009-11-16 08:06:40 51°12.699 2°49.314 241.4 12.2 243 11.7
2009-11-16 08:06:45 51°12.691 2°49.29 241.4 12.2 243 11.7
2009-11-16 08:06:50 51°12.684 2°49.266 240.8 12.2 242 11.7
2009-11-16 08:06:55 51°12.676 2°49.242 240.3 12.2 243 11.7
2009-11-16 08:07:00 51°12.668 2°49.218 240.9 12.2 243 11.7
2009-11-16 08:07:05 51°12.66 2°49.194 241.3 12.2 243 11.7
2009-11-16 08:07:10 51°12.653 2°49.17 242.5 12.2 245 11.8
2009-11-16 08:07:15 51°12.645 2°49.145 242.8 12.2 244 11.8
2009-11-16 08:07:20 51°12.638 2°49.121 243 12.2 245 11.8
2009-11-16 08:07:25 51°12.631 2°49.096 243.3 12.2 245 11.8
2009-11-16 08:07:30 51°12.624 2°49.071 243.9 12.2 246 11.9
2009-11-16 08:07:35 51°12.617 2°49.047 244.2 12.2 246 11.9
2009-11-16 08:07:40 51°12.611 2°49.022 244.8 12.2 247 11.8
2009-11-16 08:07:45 51°12.604 2°48.998 245 12.2 246 11.9
2009-11-16 08:07:50 51°12.597 2°48.973 245 12.2 246 11.9
2009-11-16 08:07:55 51°12.59 2°48.948 244.7 12.2 246 11.9
2009-11-16 08:08:00 51°12.583 2°48.924 244.7 12.2 246 11.9
2009-11-16 08:08:05 51°12.577 2°48.899 244.9 12.2 246 11.9
2009-11-16 08:08:09 51°12.571 2°48.879 244.8 12.2 246 11.9
2009-11-16 08:08:15 51°12.563 2°48.85 244.7 12.2 246 11.8
2009-11-16 08:08:20 51°12.556 2°48.826 244.5 12.2 246 11.9
2009-11-16 08:08:25 51°12.549 2°48.801 244.5 12.2 246 12
2009-11-16 08:08:30 51°12.542 2°48.777 244.6 12.2 246 12
2009-11-16 08:08:35 51°12.535 2°48.753 244.6 12.2 246 12
2009-11-16 08:08:40 51°12.528 2°48.728 244.7 12.2 246 12.1
2009-11-16 08:08:45 51°12.521 2°48.703 244.7 12.2 246 12
2009-11-16 08:08:50 51°12.515 2°48.679 245 12.2 247 12
2009-11-16 08:08:55 51°12.508 2°48.654 245.2 12.1 247 12.1
2009-11-16 08:09:00 51°12.501 2°48.629 245.3 12.1 246 12
2009-11-16 08:09:05 51°12.495 2°48.605 245.2 12.1 247 12.1
2009-11-16 08:09:09 51°12.489 2°48.585 245.2 12.1 246 12
2009-11-16 08:09:15 51°12.481 2°48.556 244.9 12.1 246 12.1
2009-11-16 08:09:20 51°12.474 2°48.531 244.8 12.1 246 12.1
2009-11-16 08:09:25 51°12.467 2°48.507 244.7 12.1 245 12.1
2009-11-16 08:09:30 51°12.46 2°48.482 244.7 12.1 246 12.2
2009-11-16 08:09:35 51°12.454 2°48.458 245.1 12.1 246 12.2
2009-11-16 08:09:40 51°12.447 2°48.433 245.2 12.1 246 12.4
2009-11-16 08:09:45 51°12.44 2°48.409 245 12.1 246 12.2
2009-11-16 08:09:50 51°12.434 2°48.384 244.9 12.1 246 10.8
2009-11-16 08:09:55 51°12.426 2°48.36 244.8 12.1 246 12.2
2009-11-16 08:10:00 51°12.419 2°48.336 244.7 12.1 246 12.2
2009-11-16 08:10:05 51°12.413 2°48.311 244.5 12.1 246 12.3
2009-11-16 08:10:09 51°12.407 2°48.291 244.5 12.1 246 12.2
2009-11-16 08:10:15 51°12.399 2°48.263 244.5 12.1 246 12.3
2009-11-16 08:10:20 51°12.392 2°48.238 244.6 12.1 246 12.2
2009-11-16 08:10:25 51°12.385 2°48.214 244.4 12.1 245 12.2
2009-11-16 08:10:30 51°12.378 2°48.19 244.3 12.1 246 12.3
2009-11-16 08:10:35 51°12.371 2°48.166 244.3 12 245 12.2
2009-11-16 08:10:40 51°12.364 2°48.142 244.1 12.1 246 12.3
2009-11-16 08:10:45 51°12.357 2°48.117 244.1 12 245 12.2
2009-11-16 08:10:49 51°12.352 2°48.098 244.3 12 246 12.3
2009-11-16 08:10:55 51°12.343 2°48.069 244.5 12 245 12.3
2009-11-16 08:11:00 51°12.336 2°48.045 244.5 12 246 12.3
2009-11-16 08:11:05 51°12.329 2°48.021 244.5 12 245 12.3
2009-11-16 08:11:10 51°12.323 2°47.996 244.4 12 246 12.3
2009-11-16 08:11:15 51°12.316 2°47.972 244.4 12 246 12.4
2009-11-16 08:11:20 51°12.309 2°47.948 244.8 12 246 12.5
2009-11-16 08:11:25 51°12.302 2°47.924 244.7 12 246 12.4
2009-11-16 08:11:29 51°12.297 2°47.904 244.7 12 246 12.4
2009-11-16 08:11:35 51°12.288 2°47.876 244.6 12 246 12.4
2009-11-16 08:11:40 51°12.282 2°47.852 244.7 12 246 12.4
2009-11-16 08:11:45 51°12.275 2°47.827 244.7 12 246 12.4
2009-11-16 08:11:50 51°12.268 2°47.803 244.7 12 247 12.4
2009-11-16 08:11:55 51°12.261 2°47.779 244.9 11.9 246 12.5
2009-11-16 08:12:00 51°12.255 2°47.755 245 11.9 246 12.5
2009-11-16 08:12:05 51°12.248 2°47.731 244.8 11.9 246 12.5
2009-11-16 08:12:10 51°12.241 2°47.707 244.6 11.9 246 12.5
2009-11-16 08:12:15 51°12.234 2°47.683 244.5 12 246 12.5
2009-11-16 08:12:20 51°12.228 2°47.658 244.4 12 245 12.5
2009-11-16 08:12:25 51°12.221 2°47.634 244.3 12 246 12.5
2009-11-16 08:12:30 51°12.214 2°47.61 244.3 12 246 12.6
2009-11-16 08:12:35 51°12.207 2°47.586 244.4 12 245 12.5
2009-11-16 08:12:40 51°12.2 2°47.562 244.4 12 246 12.6
2009-11-16 08:12:45 51°12.194 2°47.538 244.7 12 246 12.6
2009-11-16 08:12:50 51°12.187 2°47.514 244.7 12 246 12.6
2009-11-16 08:12:55 51°12.181 2°47.49 244.8 11.9 246 12.6
2009-11-16 08:13:00 51°12.174 2°47.466 244.7 12 246 12.6
2009-11-16 08:13:05 51°12.167 2°47.441 244.1 11.9 246 12.6
2009-11-16 08:13:10 51°12.16 2°47.417 244 11.9 246 12.6
2009-11-16 08:13:15 51°12.154 2°47.393 244.2 12 246 12.6
2009-11-16 08:13:20 51°12.147 2°47.369 244.4 11.9 246 12.5
2009-11-16 08:13:25 51°12.141 2°47.344 244.4 11.9 246 12.6
2009-11-16 08:13:29 51°12.135 2°47.325 244.6 11.9 246 12.6
2009-11-16 08:13:35 51°12.127 2°47.297 244.3 11.9 246 12.6
2009-11-16 08:13:40 51°12.12 2°47.273 244.4 11.9 246 12.6
2009-11-16 08:13:45 51°12.113 2°47.249 244.6 11.9 246 12.6
2009-11-16 08:13:50 51°12.107 2°47.224 244.5 11.9 246 12.7
2009-11-16 08:13:55 51°12.1 2°47.2 244.5 11.9 246 12.6
2009-11-16 08:14:00 51°12.094 2°47.176 244.5 11.9 246 12.6
2009-11-16 08:14:05 51°12.087 2°47.152 244.3 11.9 245 12.7
2009-11-16 08:14:09 51°12.081 2°47.133 244 11.9 246 12.7
2009-11-16 08:14:15 51°12.072 2°47.105 244.3 12 246 12.7
2009-11-16 08:14:20 51°12.066 2°47.081 244.7 11.9 247 12.7
2009-11-16 08:14:25 51°12.059 2°47.056 244.5 12 245 12.7
2009-11-16 08:14:30 51°12.053 2°47.032 244.2 11.9 246 12.7
2009-11-16 08:14:35 51°12.046 2°47.008 244.3 11.9 246 12.7
2009-11-16 08:14:40 51°12.039 2°46.984 244.6 11.9 246 12.7
2009-11-16 08:14:45 51°12.032 2°46.96 244.7 11.9 246 12.7
2009-11-16 08:14:49 51°12.027 2°46.941 244.7 11.9 246 12.7
2009-11-16 08:14:55 51°12.019 2°46.912 244.5 12 246 12.7
2009-11-16 08:15:00 51°12.012 2°46.888 244.2 12 245 12.7
2009-11-16 08:15:05 51°12.005 2°46.864 244.1 12 246 12.8
2009-11-16 08:15:10 51°11.998 2°46.839 244.1 12.1 245 12.7
2009-11-16 08:15:15 51°11.991 2°46.815 244 12.1 245 12.8
2009-11-16 08:15:20 51°11.984 2°46.791 244 12.1 245 12.8
2009-11-16 08:15:25 51°11.977 2°46.767 244 12.1 245 12.8
2009-11-16 08:15:29 51°11.972 2°46.747 243.9 12.1 246 12.8
2009-11-16 08:15:35 51°11.963 2°46.718 243.9 12.2 246 12.8
2009-11-16 08:15:40 51°11.956 2°46.693 243.9 12.1 246 12.8
2009-11-16 08:15:45 51°11.95 2°46.668 245.8 12.2 250 12.8
2009-11-16 08:15:50 51°11.945 2°46.643 247.8 12.2 250 12.8
2009-11-16 08:15:55 51°11.939 2°46.617 248.6 12.2 252 12.9
2009-11-16 08:16:00 51°11.934 2°46.592 249.8 12.2 252 12.8
2009-11-16 08:16:05 51°11.928 2°46.566 250.3 12.2 252 12.8
2009-11-16 08:16:10 51°11.923 2°46.541 251 12.2 253 12.8
2009-11-16 08:16:15 51°11.918 2°46.515 251.5 12.2 254 12.8
2009-11-16 08:16:20 51°11.914 2°46.489 252.2 12.2 254 12.8
2009-11-16 08:16:25 51°11.909 2°46.463 252.4 12.2 254 12.8
2009-11-16 08:16:30 51°11.904 2°46.437 252.9 12.2 254 12.8
2009-11-16 08:16:35 51°11.9 2°46.412 253.1 12.2 254 12.8
2009-11-16 08:16:40 51°11.895 2°46.386 253.1 12.1 254 12.9
2009-11-16 08:16:45 51°11.89 2°46.36 253.2 12.1 255 12.8
2009-11-16 08:16:50 51°11.886 2°46.334 253.2 12.1 254 12.9
2009-11-16 08:16:55 51°11.882 2°46.308 253.2 12.1 255 12.8
2009-11-16 08:17:00 51°11.877 2°46.283 254.1 12.1 256 12.9
2009-11-16 08:17:05 51°11.874 2°46.256 255.9 12.1 258 12.9
2009-11-16 08:17:10 51°11.87 2°46.23 256.3 12.1 256 12.9
2009-11-16 08:17:15 51°11.867 2°46.204 258.4 12.1 261 12.9
2009-11-16 08:17:20 51°11.864 2°46.178 259.5 12.1 260 12.9
2009-11-16 08:17:25 51°11.862 2°46.151 260.4 12.1 262 12.9
2009-11-16 08:17:30 51°11.86 2°46.125 261.5 12.1 263 12.9
2009-11-16 08:17:35 51°11.858 2°46.098 262.1 12.1 263 12.9
2009-11-16 08:17:40 51°11.856 2°46.072 262.8 12.1 264 12.9
2009-11-16 08:17:45 51°11.854 2°46.045 263.6 12.1 264 12.9
2009-11-16 08:17:50 51°11.853 2°46.019 263.8 12.1 264 12.9
2009-11-16 08:17:55 51°11.851 2°45.992 264.3 12.1 266 12.9
2009-11-16 08:18:00 51°11.85 2°45.966 265.3 12.1 265 12.9
2009-11-16 08:18:05 51°11.849 2°45.939 265.7 12.1 266 12.9
2009-11-16 08:18:09 51°11.848 2°45.918 266.5 12.1 267 12.9
2009-11-16 08:18:15 51°11.847 2°45.885 266.9 12.1 267 12.9
2009-11-16 08:18:20 51°11.846 2°45.859 267.4 12.1 268 12.9
2009-11-16 08:18:25 51°11.845 2°45.832 267.6 12.1 267 12.9
2009-11-16 08:18:30 51°11.844 2°45.806 267.3 12.1 266 12.9
2009-11-16 08:18:35 51°11.843 2°45.779 267.2 12.1 267 12.9
2009-11-16 08:18:40 51°11.842 2°45.752 266.9 12.1 266 12.9
2009-11-16 08:18:45 51°11.842 2°45.726 266.7 12.1 268 12.9
2009-11-16 08:18:49 51°11.841 2°45.704 266.7 12 266 12.9
2009-11-16 08:18:55 51°11.839 2°45.673 266.8 12 266 12.9
2009-11-16 08:19:00 51°11.837 2°45.646 265.5 12 264 12.9
2009-11-16 08:19:05 51°11.836 2°45.62 264.8 12 265 12.9
2009-11-16 08:19:10 51°11.834 2°45.594 264.3 12 263 12.9
2009-11-16 08:19:15 51°11.832 2°45.567 263.1 11.9 263 12.9
2009-11-16 08:19:20 51°11.83 2°45.541 262.9 11.9 263 12.9
2009-11-16 08:19:25 51°11.828 2°45.515 262.3 12 262 12.9
2009-11-16 08:19:29 51°11.826 2°45.494 262 11.9 263 12.8
2009-11-16 08:19:35 51°11.823 2°45.463 261.8 11.9 262 12.9
2009-11-16 08:19:40 51°11.821 2°45.437 261.6 11.9 262 12.9
2009-11-16 08:19:45 51°11.819 2°45.411 261.5 11.9 262 12.8
2009-11-16 08:19:50 51°11.816 2°45.385 261.5 11.9 262 12.7
2009-11-16 08:19:55 51°11.814 2°45.359 261.4 11.9 262 12.8
2009-11-16 08:20:00 51°11.811 2°45.333 261.3 11.9 261 12.8
2009-11-16 08:20:05 51°11.809 2°45.307 261.3 11.9 261 12.8
2009-11-16 08:20:09 51°11.807 2°45.286 261.2 11.9 261 12.7
2009-11-16 08:20:15 51°11.804 2°45.255 261.1 11.9 262 12.7
2009-11-16 08:20:20 51°11.802 2°45.229 261.2 11.9 261 12.8
2009-11-16 08:20:25 51°11.799 2°45.203 261 11.9 261 12.8
2009-11-16 08:20:30 51°11.797 2°45.177 260.9 11.9 262 12.7
2009-11-16 08:20:35 51°11.795 2°45.151 261.1 11.9 262 12.6
2009-11-16 08:20:40 51°11.792 2°45.125 261.2 11.9 262 12.7
2009-11-16 08:20:45 51°11.79 2°45.099 261.1 11.9 261 12.7
2009-11-16 08:20:49 51°11.788 2°45.078 260.7 11.8 261 12.7
2009-11-16 08:21:33 51°11.766 2°44.851 260.4 11.8 261 12.4
2009-11-16 08:21:38 51°11.763 2°44.825 260.4 11.8 261 12.4
2009-11-16 08:21:43 51°11.761 2°44.8 260.5 11.8 261 12.3
2009-11-16 08:21:48 51°11.758 2°44.774 260.5 11.8 261 12.3
2009-11-16 08:21:53 51°11.756 2°44.748 260.6 11.8 261 12.3
2009-11-16 08:21:58 51°11.753 2°44.722 260.7 11.8 261 12.2
2009-11-16 08:22:03 51°11.751 2°44.697 260.5 11.8 261 12.2
2009-11-16 08:22:08 51°11.748 2°44.671 260.3 11.8 261 12.1
2009-11-16 08:22:13 51°11.745 2°44.645 260.2 11.8 261 12.1
2009-11-16 08:22:18 51°11.743 2°44.62 260.5 11.8 261 12.2
2009-11-16 08:22:23 51°11.74 2°44.594 260.4 11.8 261 12.1
2009-11-16 08:22:28 51°11.738 2°44.568 260.4 11.8 261 12.1
2009-11-16 08:22:33 51°11.735 2°44.543 260.2 11.7 261 12.1
2009-11-16 08:22:38 51°11.733 2°44.517 260.7 11.8 261 12.1
2009-11-16 08:22:43 51°11.73 2°44.492 260.4 11.8 261 12.1
2009-11-16 08:22:48 51°11.728 2°44.466 260.2 11.8 261 12.1
2009-11-16 08:22:53 51°11.725 2°44.44 260.3 11.7 261 12
2009-11-16 08:22:57 51°11.723 2°44.42 260.3 11.7 261 12
2009-11-16 08:23:03 51°11.719 2°44.389 259.7 11.7 259 11.9
2009-11-16 08:23:08 51°11.716 2°44.364 259.1 11.7 260 12
2009-11-16 08:23:13 51°11.713 2°44.339 258.8 11.7 259 12
2009-11-16 08:23:17 51°11.711 2°44.318 258.4 11.7 259 12
2009-11-16 08:23:23 51°11.707 2°44.288 258.5 11.7 259 12
2009-11-16 08:23:28 51°11.704 2°44.262 258.5 11.7 259 11.9
2009-11-16 08:23:33 51°11.701 2°44.237 258.6 11.7 259 11.9
2009-11-16 08:23:38 51°11.698 2°44.211 258.7 11.7 259 11.8
2009-11-16 08:23:43 51°11.695 2°44.186 258.6 11.7 259 11.8
2009-11-16 08:23:48 51°11.692 2°44.16 258.3 11.7 259 11.7
2009-11-16 08:23:53 51°11.689 2°44.135 258.3 11.7 259 11.7
2009-11-16 08:23:57 51°11.687 2°44.115 258.4 11.7 259 11.7
2009-11-16 08:24:03 51°11.683 2°44.084 258.6 11.7 260 11.6
2009-11-16 08:24:08 51°11.68 2°44.059 258.6 11.7 259 11.5
2009-11-16 08:24:13 51°11.677 2°44.034 258.4 11.7 259 11.6
2009-11-16 08:24:18 51°11.674 2°44.008 258.3 11.7 259 11.6
2009-11-16 08:24:23 51°11.671 2°43.983 258.5 11.7 259 11.7
2009-11-16 08:24:28 51°11.668 2°43.958 258.3 11.7 259 11.6
2009-11-16 08:24:33 51°11.665 2°43.932 258.3 11.7 260 11.6
2009-11-16 08:24:38 51°11.662 2°43.907 258.5 11.7 259 11.6
2009-11-16 08:24:43 51°11.659 2°43.882 258.3 11.7 259 11.5
2009-11-16 08:24:48 51°11.655 2°43.857 258.1 11.7 259 11.5
2009-11-16 08:24:53 51°11.652 2°43.832 258 11.7 259 11.5
2009-11-16 08:24:58 51°11.649 2°43.806 257.9 11.7 258 11.5
2009-11-16 08:25:03 51°11.646 2°43.781 257.9 11.7 258 11.5
2009-11-16 08:25:08 51°11.643 2°43.756 257.8 11.7 258 11.4
2009-11-16 08:25:13 51°11.639 2°43.731 257.8 11.7 259 11.4
2009-11-16 08:25:18 51°11.636 2°43.706 257.9 11.6 259 11.4
2009-11-16 08:25:23 51°11.633 2°43.68 258.4 11.7 259 11.4
2009-11-16 08:25:28 51°11.631 2°43.655 258.5 11.7 259 11.4
2009-11-16 08:25:33 51°11.627 2°43.63 258.3 11.6 259 11.4
2009-11-16 08:25:37 51°11.625 2°43.61 258.2 11.6 259 11.3
2009-11-16 08:25:43 51°11.622 2°43.58 258.3 11.6 259 11.2
2009-11-16 08:25:48 51°11.618 2°43.554 258.4 11.6 259 11.3
2009-11-16 08:25:53 51°11.615 2°43.529 258.4 11.6 259 11.2
2009-11-16 08:25:58 51°11.612 2°43.504 257.7 11.6 258 11.3
2009-11-16 08:26:03 51°11.609 2°43.479 257.4 11.6 258 11.1
2009-11-16 08:26:08 51°11.606 2°43.454 257.3 11.6 259 11.1
2009-11-16 08:26:13 51°11.603 2°43.429 258 11.6 259 11.1
2009-11-16 08:26:18 51°11.6 2°43.404 258.6 11.6 260 11
2009-11-16 08:26:23 51°11.597 2°43.379 258.7 11.6 259 11
2009-11-16 08:26:28 51°11.594 2°43.353 259 11.6 259 11.1
2009-11-16 08:26:33 51°11.591 2°43.328 258.6 11.6 259 11
2009-11-16 08:26:38 51°11.588 2°43.303 258.4 11.6 260 11
2009-11-16 08:26:43 51°11.585 2°43.278 258.7 11.6 259 10.9
2009-11-16 08:26:48 51°11.582 2°43.253 258.7 11.6 259 10.9
2009-11-16 08:26:53 51°11.578 2°43.227 258.4 11.6 259 10.8
2009-11-16 08:26:58 51°11.575 2°43.203 258.3 11.6 259 10.8
2009-11-16 08:27:03 51°11.572 2°43.177 258.5 11.6 259 11
2009-11-16 08:27:08 51°11.569 2°43.152 258.4 11.6 259 11.1
2009-11-16 08:27:13 51°11.566 2°43.127 258.3 11.6 259 11.1
2009-11-16 08:27:18 51°11.563 2°43.102 258.5 11.6 259 11.1
2009-11-16 08:27:23 51°11.56 2°43.077 258.7 11.6 259 11
2009-11-16 08:27:28 51°11.557 2°43.052 258.6 11.6 258 11
2009-11-16 08:27:33 51°11.554 2°43.026 258.4 11.6 259 11
2009-11-16 08:27:37 51°11.551 2°43.006 258.3 11.6 259 11
2009-11-16 08:27:43 51°11.548 2°42.976 258.4 11.6 259 11.1
2009-11-16 08:27:48 51°11.545 2°42.951 258.5 11.6 259 11.1
2009-11-16 08:27:53 51°11.542 2°42.926 258.4 11.7 259 11.1
2009-11-16 08:27:58 51°11.538 2°42.901 258.2 11.6 259 11.1
2009-11-16 08:28:03 51°11.535 2°42.876 258.2 11.6 258 11.1
2009-11-16 08:28:08 51°11.532 2°42.85 258.4 11.6 260 11.1
2009-11-16 08:28:13 51°11.529 2°42.825 258.6 11.6 259 11.1
2009-11-16 08:28:18 51°11.526 2°42.8 258.5 11.6 259 11.1
2009-11-16 08:28:23 51°11.523 2°42.775 258.4 11.6 258 11.1
2009-11-16 08:28:28 51°11.52 2°42.75 258.2 11.6 258 11
2009-11-16 08:28:33 51°11.517 2°42.725 257.9 11.6 258 11.2
2009-11-16 08:28:38 51°11.513 2°42.7 257.9 11.6 258 11.2
2009-11-16 08:28:43 51°11.51 2°42.675 258.1 11.6 259 11.1
2009-11-16 08:28:48 51°11.507 2°42.65 258.3 11.6 259 11.2
2009-11-16 08:28:53 51°11.504 2°42.625 258.5 11.6 259 11.3
2009-11-16 08:28:58 51°11.501 2°42.6 258.3 11.6 258 11.4
2009-11-16 08:29:03 51°11.497 2°42.575 258 11.6 258 11.4
2009-11-16 08:29:08 51°11.494 2°42.549 258 11.6 258 11.3
2009-11-16 08:29:13 51°11.491 2°42.524 258 11.6 259 11.2
2009-11-16 08:29:18 51°11.488 2°42.499 258.1 11.6 258 11.2
2009-11-16 08:29:23 51°11.485 2°42.474 258.3 11.6 259 11.2
2009-11-16 08:29:28 51°11.482 2°42.449 258.5 11.6 259 11.3
2009-11-16 08:29:33 51°11.478 2°42.424 258.7 11.6 259 11.5
2009-11-16 08:29:37 51°11.476 2°42.404 258.5 11.6 259 11.4
2009-11-16 08:29:43 51°11.472 2°42.374 258.3 11.6 258 11.4
2009-11-16 08:29:48 51°11.469 2°42.348 258.5 11.6 259 11.4
2009-11-16 08:29:53 51°11.466 2°42.323 258.5 11.6 259 11.4
2009-11-16 08:29:57 51°11.463 2°42.303 258.6 11.6 259 11.4
2009-11-16 08:30:03 51°11.459 2°42.273 258.6 11.6 258 11.3
2009-11-16 08:30:08 51°11.456 2°42.248 258.3 11.6 258 11.3
2009-11-16 08:30:13 51°11.453 2°42.223 258.3 11.6 258 11.4
2009-11-16 08:30:17 51°11.45 2°42.203 258.4 11.6 258 11.4
2009-11-16 08:30:23 51°11.446 2°42.173 258.3 11.6 258 11.3
2009-11-16 08:30:28 51°11.443 2°42.147 258.3 11.6 258 11.4
2009-11-16 08:30:33 51°11.44 2°42.122 258.4 11.6 259 11.4
2009-11-16 08:30:38 51°11.437 2°42.097 258.3 11.6 258 11.3
2009-11-16 08:30:43 51°11.433 2°42.072 257.9 11.6 258 11.4
2009-11-16 08:30:48 51°11.43 2°42.047 257.9 11.6 258 11.4
2009-11-16 08:30:53 51°11.427 2°42.022 258.5 11.6 259 11.5
2009-11-16 08:30:58 51°11.423 2°41.997 257.7 11.6 256 11.4
2009-11-16 08:31:03 51°11.419 2°41.972 256.3 11.5 257 11.5
2009-11-16 08:31:08 51°11.415 2°41.948 255.5 11.6 255 11.5
2009-11-16 08:31:13 51°11.41 2°41.924 253.4 11.5 253 11.5
2009-11-16 08:31:18 51°11.405 2°41.899 253 11.5 253 11.6
2009-11-16 08:31:23 51°11.399 2°41.876 250.8 11.5 250 11.6
2009-11-16 08:31:28 51°11.394 2°41.852 249.5 11.5 250 11.6
2009-11-16 08:31:33 51°11.388 2°41.828 248.6 11.5 249 11.6
2009-11-16 08:31:38 51°11.382 2°41.805 247.7 11.5 248 11.7
2009-11-16 08:31:43 51°11.376 2°41.781 246.6 11.5 247 11.8
2009-11-16 08:31:48 51°11.369 2°41.758 246.1 11.5 247 11.7
2009-11-16 08:31:53 51°11.363 2°41.735 245.5 11.6 245 11.8
2009-11-16 08:31:58 51°11.356 2°41.711 244.7 11.6 246 11.7
2009-11-16 08:32:03 51°11.349 2°41.688 244.5 11.6 245 11.8
2009-11-16 08:32:08 51°11.343 2°41.665 244 11.6 246 11.9
2009-11-16 08:32:13 51°11.336 2°41.642 243.9 11.6 245 11.9
2009-11-16 08:32:17 51°11.33 2°41.623 243.7 11.6 245 11.9
2009-11-16 08:32:23 51°11.322 2°41.595 244 11.6 245 12
2009-11-16 08:32:28 51°11.316 2°41.572 244 11.6 246 11.9
2009-11-16 08:32:33 51°11.309 2°41.549 244.3 11.6 246 11.9
2009-11-16 08:32:38 51°11.302 2°41.526 244.1 11.6 245 12
2009-11-16 08:32:43 51°11.296 2°41.503 244 11.6 246 12.1
2009-11-16 08:32:48 51°11.289 2°41.479 244.3 11.6 246 12.2
2009-11-16 08:32:53 51°11.282 2°41.456 244.1 11.6 245 12.1
2009-11-16 08:32:57 51°11.276 2°41.438 243.9 11.6 244 12.3
2009-11-16 08:33:03 51°11.267 2°41.41 242.3 11.7 242 12.2
2009-11-16 08:33:08 51°11.26 2°41.388 241 11.6 242 12.3
2009-11-16 08:33:13 51°11.252 2°41.365 240.2 11.7 242 12.3
2009-11-16 08:33:18 51°11.244 2°41.343 239.4 11.7 240 12.3
2009-11-16 08:33:23 51°11.236 2°41.32 238.8 11.7 240 12.4
2009-11-16 08:33:28 51°11.228 2°41.298 238.2 11.8 239 12.4
2009-11-16 08:33:33 51°11.219 2°41.276 237.3 11.8 239 12.4
2009-11-16 08:33:38 51°11.21 2°41.253 237.1 11.8 239 12.4
2009-11-16 08:33:43 51°11.202 2°41.231 236.8 11.8 238 12.4
2009-11-16 08:33:48 51°11.193 2°41.209 236.5 11.8 238 12.5
2009-11-16 08:33:53 51°11.184 2°41.187 236.5 11.9 238 12.5
2009-11-16 08:33:58 51°11.176 2°41.164 236.5 11.9 238 12.5
2009-11-16 08:34:03 51°11.167 2°41.142 236.5 11.9 238 12.6
2009-11-16 08:34:08 51°11.158 2°41.119 236.6 11.9 239 12.6
2009-11-16 08:34:13 51°11.15 2°41.097 236.8 11.9 239 12.6
2009-11-16 08:34:17 51°11.143 2°41.079 236.9 11.9 239 12.7
2009-11-16 08:34:23 51°11.133 2°41.052 237.4 11.9 239 12.7
2009-11-16 08:34:28 51°11.125 2°41.029 237.4 11.9 239 12.7
2009-11-16 08:34:33 51°11.116 2°41.007 237.7 11.9 240 12.8
2009-11-16 08:34:37 51°11.11 2°40.989 237.6 11.9 239 12.8
2009-11-16 08:34:43 51°11.1 2°40.961 237.4 12 239 12.8
2009-11-16 08:34:48 51°11.091 2°40.939 237.4 11.9 239 12.8
2009-11-16 08:34:53 51°11.083 2°40.916 237.4 11.9 239 13
2009-11-16 08:34:58 51°11.075 2°40.893 237.5 11.9 239 13
2009-11-16 08:35:03 51°11.066 2°40.871 237.3 11.9 238 13
2009-11-16 08:35:08 51°11.057 2°40.849 235.8 11.8 237 13.1
2009-11-16 08:35:13 51°11.048 2°40.827 234.9 11.8 237 13.1
2009-11-16 08:35:18 51°11.039 2°40.806 234.3 11.8 236 13.2
2009-11-16 08:35:23 51°11.029 2°40.785 233.6 11.8 235 13.2
2009-11-16 08:35:28 51°11.02 2°40.763 233.3 11.8 235 13.2
2009-11-16 08:35:33 51°11.01 2°40.742 233.1 11.8 235 13.3
2009-11-16 08:35:38 51°11.001 2°40.721 232.6 11.8 234 13.3
2009-11-16 08:35:43 51°10.991 2°40.7 232.3 11.8 234 13.3
2009-11-16 08:35:48 51°10.98 2°40.68 230.2 11.8 230 13.4
2009-11-16 08:35:53 51°10.97 2°40.66 228.1 11.8 230 13.4
2009-11-16 08:35:58 51°10.959 2°40.64 227.2 11.7 229 13.4
2009-11-16 08:36:03 51°10.948 2°40.621 225.8 11.8 227 13.5
2009-11-16 08:36:08 51°10.937 2°40.602 224.7 11.8 227 13.5
2009-11-16 08:36:13 51°10.926 2°40.584 224.2 11.8 227 13.5
2009-11-16 08:36:18 51°10.914 2°40.565 223.1 11.8 225 13.4
2009-11-16 08:36:23 51°10.903 2°40.547 222.9 11.8 226 13.5
2009-11-16 08:36:28 51°10.891 2°40.529 222.5 11.8 224 13.5
2009-11-16 08:36:33 51°10.879 2°40.51 221.8 11.8 225 13.6
2009-11-16 08:36:38 51°10.868 2°40.492 221.7 11.7 224 13.6
2009-11-16 08:36:43 51°10.856 2°40.474 221.5 11.7 224 13.7
2009-11-16 08:36:48 51°10.844 2°40.457 220 11.7 221 13.7
2009-11-16 08:36:53 51°10.831 2°40.441 218.1 11.7 220 13.8
2009-11-16 08:36:58 51°10.819 2°40.424 217.8 11.7 221 13.7
2009-11-16 08:37:03 51°10.806 2°40.408 216.5 11.6 218 13.8
2009-11-16 08:37:08 51°10.794 2°40.391 216.1 11.6 220 13.8
2009-11-16 08:37:13 51°10.781 2°40.376 215.5 11.6 218 13.8
2009-11-16 08:37:18 51°10.768 2°40.36 214.8 11.7 218 13.9
2009-11-16 08:37:23 51°10.756 2°40.344 214.8 11.6 217 13.8
2009-11-16 08:37:28 51°10.743 2°40.329 214.7 11.7 217 13.9
2009-11-16 08:37:33 51°10.73 2°40.314 213.7 11.6 215 13.9
2009-11-16 08:37:38 51°10.716 2°40.299 212.2 11.6 215 13.9
2009-11-16 08:37:43 51°10.703 2°40.284 211.6 11.6 215 13.9
2009-11-16 08:37:48 51°10.69 2°40.271 210.9 11.6 212 14
2009-11-16 08:37:53 51°10.676 2°40.257 209.8 11.6 213 14
2009-11-16 08:37:58 51°10.662 2°40.246 207.2 11.5 207 14
2009-11-16 08:38:03 51°10.648 2°40.233 204.9 11.5 209 14.1
2009-11-16 08:38:08 51°10.634 2°40.223 203.7 11.4 205 14
2009-11-16 08:38:13 51°10.619 2°40.212 201.7 11.5 204 14.1
2009-11-16 08:38:18 51°10.605 2°40.202 201.1 11.4 205 14.1
2009-11-16 08:38:23 51°10.59 2°40.192 199.9 11.4 202 14
2009-11-16 08:38:28 51°10.575 2°40.182 199 11.5 203 14
2009-11-16 08:38:33 51°10.561 2°40.173 198.6 11.4 202 14
2009-11-16 08:38:37 51°10.549 2°40.166 197.6 11.5 201 14
2009-11-16 08:38:43 51°10.531 2°40.154 197.6 11.5 202 14
2009-11-16 08:38:48 51°10.516 2°40.145 197.8 11.5 201 13.9
2009-11-16 08:38:53 51°10.501 2°40.136 197.1 11.5 201 13.9
2009-11-16 08:38:58 51°10.486 2°40.127 197 11.5 201 13.9
2009-11-16 08:39:03 51°10.471 2°40.118 197.4 11.5 201 13.9
2009-11-16 08:39:08 51°10.457 2°40.109 197.5 11.5 201 13.9
2009-11-16 08:39:13 51°10.442 2°40.1 197.5 11.5 201 13.8
2009-11-16 08:39:18 51°10.427 2°40.09 197.3 11.5 201 13.8
2009-11-16 08:39:23 51°10.412 2°40.081 197.3 11.5 201 13.7
2009-11-16 08:39:28 51°10.397 2°40.072 197.7 11.4 201 13.7
2009-11-16 08:39:33 51°10.382 2°40.065 196.3 11.3 198 13.6
2009-11-16 08:39:37 51°10.37 2°40.06 192.6 11.3 194 13.5
2009-11-16 08:39:43 51°10.352 2°40.052 191 11.3 195 13.5
2009-11-16 08:39:48 51°10.337 2°40.047 189.2 11.2 191 13.4
2009-11-16 08:39:53 51°10.321 2°40.042 187.6 11.2 191 13.4
2009-11-16 08:39:58 51°10.306 2°40.038 186.5 11.3 190 13.3
2009-11-16 08:40:03 51°10.291 2°40.035 185.5 11.1 188 13.2
2009-11-16 08:40:08 51°10.275 2°40.032 184 11.1 187 13.1
2009-11-16 08:40:13 51°10.26 2°40.032 180.1 11.1 181 13
2009-11-16 08:40:18 51°10.245 2°40.031 177.2 11.1 181 13
2009-11-16 08:40:23 51°10.229 2°40.032 175.3 11.1 178 12.9
2009-11-16 08:40:28 51°10.214 2°40.034 172.9 11.1 176 12.7
2009-11-16 08:40:33 51°10.198 2°40.036 171.3 11.1 175 12.7
2009-11-16 08:40:38 51°10.183 2°40.038 170.3 10.9 174 12.5
2009-11-16 08:40:43 51°10.169 2°40.041 168.8 10.1 172 12.4
2009-11-16 08:40:48 51°10.156 2°40.044 167.7 9.5 171 12.3
2009-11-16 08:40:53 51°10.144 2°40.049 164.7 8.8 166 12.3
2009-11-16 08:40:58 51°10.134 2°40.055 159.2 8.1 161 12.1
2009-11-16 08:41:03 51°10.125 2°40.063 152.5 7.3 150 12.1
2009-11-16 08:41:08 51°10.117 2°40.071 144.6 6.7 145 12
2009-11-16 08:41:13 51°10.111 2°40.08 136.5 6.3 137 11.9
2009-11-16 08:41:17 51°10.107 2°40.088 128.7 6 131 11.9
2009-11-16 08:41:23 51°10.101 2°40.101 122.5 5.6 124 11.9
2009-11-16 08:41:28 51°10.098 2°40.111 117.4 5.4 120 11.9
2009-11-16 08:41:33 51°10.094 2°40.121 113.5 5.2 117 11.9
2009-11-16 08:41:38 51°10.093 2°40.131 108.5 4.9 108 11.8
2009-11-16 08:41:43 51°10.091 2°40.141 102.4 4.6 102 11.8
2009-11-16 08:41:48 51°10.091 2°40.151 96.5 4.5 95 11.8
2009-11-16 08:41:53 51°10.091 2°40.161 90.5 4.5 90 11.7
2009-11-16 08:41:58 51°10.092 2°40.17 85.5 4.4 86 11.8
2009-11-16 08:42:03 51°10.092 2°40.18 82.1 4.4 82 11.8
2009-11-16 08:42:08 51°10.094 2°40.19 80.3 4.4 80 11.8
2009-11-16 08:42:13 51°10.095 2°40.2 78.1 4.5 80 11.7
2009-11-16 08:42:18 51°10.096 2°40.209 77 4.4 78 11.7
2009-11-16 08:42:23 51°10.097 2°40.219 78.3 4.4 82 11.7
2009-11-16 08:42:28 51°10.097 2°40.228 81.4 4.2 88 11.7
2009-11-16 08:42:33 51°10.097 2°40.237 87.6 4.1 92 11.7
2009-11-16 08:42:38 51°10.096 2°40.245 93.1 3.8 99 11.7
2009-11-16 08:42:43 51°10.095 2°40.253 98.4 3.5 104 11.7
2009-11-16 08:42:48 51°10.094 2°40.26 103.2 3.3 110 11.6
2009-11-16 08:42:53 51°10.091 2°40.266 108.1 3.2 114 11.6
2009-11-16 08:42:58 51°10.089 2°40.272 112.6 3.1 118 11.6
2009-11-16 08:43:03 51°10.086 2°40.278 116.8 3.1 123 11.6
2009-11-16 08:43:08 51°10.084 2°40.284 119.1 3.1 125 11.6
2009-11-16 08:43:13 51°10.081 2°40.289 123 3 130 11.5
2009-11-16 08:43:17 51°10.079 2°40.292 127.1 3 134 11.6
2009-11-16 08:43:23 51°10.075 2°40.297 131.4 2.9 140 11.5
2009-11-16 08:43:28 51°10.071 2°40.301 135.7 3 145 11.5
2009-11-16 08:43:33 51°10.068 2°40.305 140.1 3.1 148 11.5
2009-11-16 08:43:38 51°10.065 2°40.307 144.3 2.9 157 11.4
2009-11-16 08:43:43 51°10.061 2°40.31 150.5 2.8 161 11.4
2009-11-16 08:43:48 51°10.057 2°40.311 154 2.7 167 11.4
2009-11-16 08:43:53 51°10.053 2°40.312 158.7 2.6 169 11.4
2009-11-16 08:43:57 51°10.051 2°40.313 162.1 2.6 173 11.3
2009-11-16 08:44:03 51°10.046 2°40.313 165.8 2.6 177 11.4
2009-11-16 08:44:08 51°10.043 2°40.313 169.1 2.7 182 11.3
2009-11-16 08:44:13 51°10.039 2°40.313 174.4 2.7 186 11.3
2009-11-16 08:44:18 51°10.035 2°40.311 179.3 2.8 191 11.3
2009-11-16 08:44:23 51°10.032 2°40.31 184 2.8 195 11.3
2009-11-16 08:44:28 51°10.028 2°40.308 188.1 2.8 201 11.3
2009-11-16 08:44:33 51°10.025 2°40.305 194.3 2.8 207 11.2
2009-11-16 08:44:38 51°10.021 2°40.302 198.5 2.8 211 11.2
2009-11-16 08:44:43 51°10.018 2°40.298 205 2.9 217 11.2
2009-11-16 08:44:48 51°10.015 2°40.294 209.6 2.7 220 11.2
2009-11-16 08:44:53 51°10.013 2°40.29 216 2.6 226 11.2
2009-11-16 08:44:58 51°10.011 2°40.286 219.4 2.5 228 11.2
2009-11-16 08:45:03 51°10.009 2°40.282 223.2 2.3 234 11.2
2009-11-16 08:45:08 51°10.007 2°40.278 225.5 2.2 235 11.2
2009-11-16 08:45:13 51°10.005 2°40.274 229 2.1 241 11.3
2009-11-16 08:45:18 51°10.004 2°40.27 231.5 2 241 11.2
2009-11-16 08:45:23 51°10.003 2°40.266 235.2 1.9 248 11.1
2009-11-16 08:45:28 51°10.002 2°40.262 237.4 1.7 249 11.2
2009-11-16 08:45:33 51°10.002 2°40.259 240.8 1.6 253 11.2
2009-11-16 08:45:37 51°10.001 2°40.256 243.6 1.5 255 11.2
2009-11-16 08:45:43 51°10.001 2°40.253 246.6 1.3 259 11.2
2009-11-16 08:45:48 51°10.001 2°40.25 248.8 1.2 263 11.2
2009-11-16 08:45:53 51°10.001 2°40.247 251.6 1.1 267 11.2
2009-11-16 08:45:58 51°10.001 2°40.245 254.1 0.9 268 11.2
2009-11-16 08:46:03 51°10.001 2°40.244 256.8 0.8 273 11.2
2009-11-16 08:46:08 51°10.001 2°40.242 260 0.6 274 11.2
2009-11-16 08:46:13 51°10.001 2°40.241 262.8 0.5 281 11.2
2009-11-16 08:46:18 51°10.001 2°40.24 265.5 0.4 290 11.2
2009-11-16 08:46:23 51°10.001 2°40.24 268.1 0.3 301 11.2
2009-11-16 08:46:28 51°10.002 2°40.239 270.3 0.3 301 11.2
2009-11-16 08:46:33 51°10.002 2°40.239 273.5 0.4 305 11.3
2009-11-16 08:46:38 51°10.002 2°40.238 275.4 0.4 302 11.2
2009-11-16 08:46:43 51°10.002 2°40.237 277.5 0.4 305 11.2
2009-11-16 08:46:48 51°10.003 2°40.236 279.4 0.4 297 11.3
2009-11-16 08:46:53 51°10.003 2°40.236 281.3 0.4 305 11.3
2009-11-16 08:46:58 51°10.004 2°40.235 282.5 0.4 298 11.3
2009-11-16 08:47:03 51°10.004 2°40.234 284 0.5 302 -999
2009-11-16 08:47:09 51°10.004 2°40.233 285.3 0.4 298 -999
2009-11-16 08:47:14 51°10.005 2°40.232 286.1 0.5 301 -999
2009-11-16 08:47:20 51°10.005 2°40.231 286.9 0.5 305 4.6
2009-11-16 08:47:25 51°10.005 2°40.23 287.7 0.5 300 -999
2009-11-16 08:47:30 51°10.006 2°40.229 288.4 0.5 306 4.5
2009-11-16 08:47:36 51°10.006 2°40.227 288.9 0.5 303 11.3
2009-11-16 08:47:40 51°10.007 2°40.227 289.5 0.5 309 11.4
2009-11-16 08:47:45 51°10.007 2°40.226 289.9 0.5 305 11.4
2009-11-16 08:47:50 51°10.008 2°40.225 290.3 0.5 308 11.3
2009-11-16 08:47:55 51°10.008 2°40.224 290.6 0.5 302 11.4
2009-11-16 08:48:00 51°10.008 2°40.223 290.8 0.5 307 11.3
2009-11-16 08:48:05 51°10.008 2°40.222 291 0.5 304 11.3
2009-11-16 08:48:09 51°10.009 2°40.222 291.1 0.5 308 11.4
2009-11-16 08:48:14 51°10.009 2°40.221 291.1 0.5 302 11.4
2009-11-16 08:48:19 51°10.01 2°40.22 291 0.5 308 11.3
2009-11-16 08:48:24 51°10.01 2°40.219 291 0.5 304 11.4
2009-11-16 08:48:29 51°10.01 2°40.218 291 0.5 305 11.4
2009-11-16 08:48:33 51°10.011 2°40.217 290.7 0.5 306 11.4
2009-11-16 08:48:38 51°10.011 2°40.216 290.6 0.5 307 11.4
2009-11-16 08:48:43 51°10.012 2°40.215 290.4 0.5 304 11.4
2009-11-16 08:48:48 51°10.012 2°40.214 289.9 0.5 304 11.4
2009-11-16 08:48:53 51°10.012 2°40.213 289.4 0.5 305 11.4
2009-11-16 08:48:58 51°10.013 2°40.212 289.1 0.5 305 11.4
2009-11-16 08:49:03 51°10.013 2°40.212 288.6 0.5 307 11.4
2009-11-16 08:49:08 51°10.014 2°40.211 288.1 0.5 302 11.4
2009-11-16 08:49:13 51°10.014 2°40.21 287.3 0.5 304 11.4
2009-11-16 08:49:18 51°10.014 2°40.209 286.8 0.5 303 11.4
2009-11-16 08:49:23 51°10.015 2°40.208 286.1 0.5 302 11.5
2009-11-16 08:49:28 51°10.015 2°40.207 285.4 0.5 305 11.4
2009-11-16 08:49:33 51°10.016 2°40.206 284.6 0.5 306 11.4
2009-11-16 08:49:38 51°10.016 2°40.205 283.9 0.5 307 11.5
2009-11-16 08:49:43 51°10.017 2°40.204 283.3 0.5 306 11.4
2009-11-16 08:49:48 51°10.017 2°40.203 282.7 0.5 307 11.4
2009-11-16 08:49:53 51°10.017 2°40.202 282.2 0.5 306 11.5
2009-11-16 08:49:57 51°10.018 2°40.202 281.7 0.5 307 11.5
2009-11-16 08:50:03 51°10.018 2°40.2 281 0.5 304 11.5
2009-11-16 08:50:08 51°10.019 2°40.2 280.5 0.5 306 11.5
2009-11-16 08:50:13 51°10.019 2°40.199 280 0.5 304 11.5
2009-11-16 08:50:17 51°10.019 2°40.198 279.5 0.5 305 11.5
2009-11-16 08:50:23 51°10.02 2°40.197 279.1 0.5 304 11.5
2009-11-16 08:50:28 51°10.02 2°40.196 278.8 0.5 301 11.5
2009-11-16 08:50:33 51°10.021 2°40.195 278.3 0.5 304 11.5
2009-11-16 08:50:38 51°10.021 2°40.194 278.1 0.5 300 11.5
2009-11-16 08:50:43 51°10.021 2°40.193 277.5 0.5 303 11.5
2009-11-16 08:50:48 51°10.022 2°40.192 277 0.5 307 11.5
2009-11-16 08:50:53 51°10.022 2°40.191 276.7 0.5 302 11.6
2009-11-16 08:50:58 51°10.022 2°40.191 276.4 0.5 305 11.5
2009-11-16 08:51:03 51°10.023 2°40.19 276 0.5 306 11.6
2009-11-16 08:51:08 51°10.023 2°40.189 275.7 0.5 305 11.5
2009-11-16 08:51:13 51°10.024 2°40.188 275.5 0.5 308 11.6
2009-11-16 08:51:18 51°10.024 2°40.187 275.1 0.5 303 11.6
2009-11-16 08:51:23 51°10.024 2°40.186 274.8 0.5 306 11.6
2009-11-16 08:51:28 51°10.025 2°40.185 274.4 0.5 303 11.5
2009-11-16 08:51:33 51°10.025 2°40.185 274 0.5 305 11.5
2009-11-16 08:51:38 51°10.026 2°40.184 273.6 0.5 303 11.6
2009-11-16 08:51:43 51°10.026 2°40.183 273.2 0.5 308 11.6
2009-11-16 08:51:48 51°10.026 2°40.182 272.8 0.5 305 11.6
2009-11-16 08:51:53 51°10.027 2°40.181 272.4 0.5 307 11.6
2009-11-16 08:51:58 51°10.027 2°40.18 272.2 0.4 308 11.6
2009-11-16 08:52:03 51°10.027 2°40.18 271.7 0.4 307 11.6
2009-11-16 08:52:08 51°10.028 2°40.179 271.3 0.5 307 11.6
2009-11-16 08:52:13 51°10.028 2°40.178 271.1 0.5 313 11.6
2009-11-16 08:52:17 51°10.029 2°40.177 270.8 0.4 309 11.7
2009-11-16 08:52:23 51°10.029 2°40.176 270.6 0.5 313 11.6
2009-11-16 08:52:28 51°10.029 2°40.176 270.5 0.4 312 11.6
2009-11-16 08:52:33 51°10.03 2°40.175 270.5 0.5 315 11.6
2009-11-16 08:52:38 51°10.03 2°40.174 270.5 0.4 311 11.6
2009-11-16 08:52:43 51°10.031 2°40.173 270.5 0.5 314 11.6
2009-11-16 08:52:48 51°10.031 2°40.173 270.7 0.4 311 11.7
2009-11-16 08:52:53 51°10.032 2°40.172 270.8 0.5 317 11.6
2009-11-16 08:52:58 51°10.032 2°40.171 270.9 0.4 314 11.7
2009-11-16 08:53:03 51°10.032 2°40.171 271.1 0.5 318 11.6
2009-11-16 08:53:08 51°10.033 2°40.17 271.3 0.4 313 11.7
2009-11-16 08:53:13 51°10.033 2°40.169 271.4 0.5 320 11.7
2009-11-16 08:53:18 51°10.034 2°40.169 271.5 0.4 317 11.7
2009-11-16 08:53:23 51°10.034 2°40.168 271.6 0.5 324 11.7
2009-11-16 08:53:28 51°10.035 2°40.168 271.7 0.4 318 11.7
2009-11-16 08:53:33 51°10.035 2°40.167 271.9 0.5 325 11.7
2009-11-16 08:53:38 51°10.036 2°40.166 272.2 0.5 324 11.7
2009-11-16 08:53:43 51°10.036 2°40.166 272.3 0.5 328 11.7
2009-11-16 08:53:48 51°10.037 2°40.165 272.6 0.5 327 11.8
2009-11-16 08:53:53 51°10.038 2°40.165 272.9 0.5 328 11.7
2009-11-16 08:53:58 51°10.038 2°40.164 273.1 0.5 326 11.7
2009-11-16 08:54:03 51°10.039 2°40.164 273.2 0.5 330 11.7
2009-11-16 08:54:08 51°10.039 2°40.163 273.5 0.4 327 11.8
2009-11-16 08:54:13 51°10.039 2°40.163 273.6 0.4 330 11.7
2009-11-16 08:54:17 51°10.04 2°40.162 273.6 0.4 327 11.8
2009-11-16 08:54:23 51°10.04 2°40.162 273.7 0.4 333 11.7
2009-11-16 08:54:28 51°10.041 2°40.161 273.9 0.4 328 11.8
2009-11-16 08:54:33 51°10.041 2°40.161 274.2 0.5 332 11.8
2009-11-16 08:54:38 51°10.042 2°40.16 274.4 0.4 331 11.7
2009-11-16 08:54:43 51°10.042 2°40.16 274.5 0.4 333 11.8
2009-11-16 08:54:48 51°10.043 2°40.159 274.7 0.4 329 11.8
2009-11-16 08:54:53 51°10.043 2°40.159 274.9 0.4 332 11.8
2009-11-16 08:54:57 51°10.044 2°40.158 275.1 0.4 327 11.8
2009-11-16 08:55:03 51°10.044 2°40.158 275.2 0.4 328 11.8
2009-11-16 08:55:08 51°10.045 2°40.157 275.2 0.4 326 11.8
2009-11-16 08:55:13 51°10.046 2°40.157 275.3 0.4 327 11.8
2009-11-16 08:55:18 51°10.046 2°40.156 275.3 0.4 326 11.8
2009-11-16 08:55:23 51°10.047 2°40.156 275.4 0.4 329 11.9
2009-11-16 08:55:28 51°10.047 2°40.155 275.5 0.4 331 11.9
2009-11-16 08:55:33 51°10.047 2°40.155 275.7 0.4 330 11.9
2009-11-16 08:55:38 51°10.048 2°40.154 275.7 0.4 329 11.9
2009-11-16 08:55:43 51°10.048 2°40.154 275.7 0.4 329 11.9
2009-11-16 08:55:48 51°10.049 2°40.153 275.7 0.4 327 11.9
2009-11-16 08:55:53 51°10.049 2°40.153 275.7 0.4 326 11.8
2009-11-16 08:55:58 51°10.05 2°40.152 275.6 0.4 334 11.9
2009-11-16 08:56:03 51°10.05 2°40.152 275.5 0.4 332 11.9
2009-11-16 08:56:08 51°10.051 2°40.152 275.4 0.4 333 11.8
2009-11-16 08:56:13 51°10.051 2°40.151 275.4 0.4 328 11.9
2009-11-16 08:56:18 51°10.052 2°40.151 275.5 0.4 328 11.9
2009-11-16 08:56:23 51°10.052 2°40.15 275.6 0.4 331 11.9
2009-11-16 08:56:28 51°10.053 2°40.15 275.6 0.4 332 11.9
2009-11-16 08:56:33 51°10.053 2°40.149 275.6 0.4 327 11.9
2009-11-16 08:56:38 51°10.053 2°40.149 275.6 0.4 334 11.9
2009-11-16 08:56:43 51°10.054 2°40.149 275.6 0.4 331 11.9
2009-11-16 08:56:48 51°10.054 2°40.148 275.7 0.4 334 11.9
2009-11-16 08:56:53 51°10.055 2°40.148 275.9 0.4 330 12
2009-11-16 08:56:58 51°10.055 2°40.148 275.9 0.4 336 12
2009-11-16 08:57:03 51°10.056 2°40.147 276.1 0.4 337 11.9
2009-11-16 08:57:08 51°10.056 2°40.147 276.3 0.4 337 11.9
2009-11-16 08:57:13 51°10.057 2°40.146 276.4 0.4 334 12
2009-11-16 08:57:18 51°10.057 2°40.146 276.6 0.4 338 12
2009-11-16 08:57:23 51°10.058 2°40.146 276.8 0.4 336 11.9
2009-11-16 08:57:28 51°10.058 2°40.146 277 0.4 338 12
2009-11-16 08:57:33 51°10.058 2°40.145 277.1 0.3 337 12
2009-11-16 08:57:38 51°10.059 2°40.145 277.2 0.4 337 12
2009-11-16 08:57:43 51°10.059 2°40.145 277.3 0.3 335 12
2009-11-16 08:57:48 51°10.06 2°40.144 277.3 0.4 339 12
2009-11-16 08:57:53 51°10.06 2°40.144 277.3 0.3 336 12
2009-11-16 08:57:58 51°10.061 2°40.144 277.2 0.4 335 12
2009-11-16 08:58:03 51°10.061 2°40.143 277.1 0.3 332 11.9
2009-11-16 08:58:08 51°10.061 2°40.143 277 0.3 334 12
2009-11-16 08:58:13 51°10.062 2°40.143 276.8 0.3 335 12
2009-11-16 08:58:18 51°10.062 2°40.142 276.7 0.3 336 12
2009-11-16 08:58:23 51°10.063 2°40.142 276.6 0.3 330 12
2009-11-16 08:58:28 51°10.063 2°40.142 276.4 0.3 332 12
2009-11-16 08:58:33 51°10.063 2°40.142 276.1 0.3 335 12.1
2009-11-16 08:58:38 51°10.064 2°40.141 275.9 0.3 333 12.1
2009-11-16 08:58:43 51°10.064 2°40.141 275.6 0.4 335 12.1
2009-11-16 08:58:48 51°10.065 2°40.141 275.3 0.4 336 12.1
2009-11-16 08:58:53 51°10.065 2°40.14 275.2 0.4 338 12.1
2009-11-16 08:58:57 51°10.065 2°40.14 275 0.4 338 12
2009-11-16 08:59:03 51°10.066 2°40.14 275 0.4 339 12.1
2009-11-16 08:59:08 51°10.067 2°40.139 275 0.4 338 12.1
2009-11-16 08:59:13 51°10.067 2°40.139 275.2 0.4 338 12.1
2009-11-16 08:59:18 51°10.068 2°40.139 275.2 0.4 337 12.1
2009-11-16 08:59:23 51°10.068 2°40.138 275.3 0.4 338 12
2009-11-16 08:59:28 51°10.068 2°40.138 275.3 0.4 337 12.1
2009-11-16 08:59:33 51°10.069 2°40.138 275.3 0.4 343 12.1
2009-11-16 08:59:38 51°10.069 2°40.137 275.3 0.4 340 12.1
2009-11-16 08:59:43 51°10.07 2°40.137 275.3 0.4 341 12.1
2009-11-16 08:59:48 51°10.07 2°40.137 275.3 0.4 336 12.1
2009-11-16 08:59:53 51°10.071 2°40.136 275.4 0.4 339 12.1
2009-11-16 08:59:58 51°10.071 2°40.136 275.4 0.4 339 12.1
2009-11-16 09:00:03 51°10.072 2°40.136 275.4 0.4 341 12.1
2009-11-16 09:00:08 51°10.073 2°40.135 275.3 0.4 342 12.1